Time;durP1;ratioP1;P1;durP2;ratioP2;P2;SDS_P1;SDS_P2;PMS_P1;PMS_P2;Temp;Humidity;BMP_temperature;BMP_pressure;BME280_temperature;BME280_humidity;BME280_pressure;Samples;Min_cycle;Max_cycle;Signal;HPM_P1;HPM_P2
2023/06/30 00:02:22;;;;;;;14.20;8.65;;;28.20;99.90;;;;;;1903639;73;21048;-82
2023/06/30 00:04:54;;;;;;;10.48;7.90;;;28.20;99.90;;;;;;1927713;74;21209;-81
2023/06/30 00:07:46;;;;;;;13.15;8.53;;;28.20;99.90;;;;;;1939333;73;21107;-84
2023/06/30 00:10:22;;;;;;;15.93;8.58;;;28.30;99.90;;;;;;1935784;73;21116;-78
2023/06/30 00:13:01;;;;;;;14.70;8.53;;;28.20;99.90;;;;;;1896411;74;21149;-79
2023/06/30 00:15:46;;;;;;;11.97;8.73;;;28.30;99.90;;;;;;1923341;73;21169;-80
2023/06/30 00:18:39;;;;;;;11.38;8.38;;;28.40;99.90;;;;;;1919997;74;21174;-77
2023/06/30 00:21:28;;;;;;;13.35;8.75;;;28.40;99.90;;;;;;1913949;73;21117;-83
2023/06/30 00:24:04;;;;;;;14.55;8.25;;;28.40;99.90;;;;;;1916075;73;21629;-78
2023/06/30 00:26:40;;;;;;;13.93;8.03;;;28.40;99.90;;;;;;1889342;74;21137;-77
2023/06/30 00:29:13;;;;;;;12.73;7.83;;;28.40;99.90;;;;;;1867835;75;21645;-78
2023/06/30 00:31:46;;;;;;;16.97;8.68;;;28.40;99.90;;;;;;1905623;74;21129;-79
2023/06/30 00:34:19;;;;;;;11.68;7.60;;;28.50;99.90;;;;;;1914337;74;21093;-78
2023/06/30 00:36:53;;;;;;;13.62;8.08;;;28.50;99.90;;;;;;1829039;77;21167;-78
2023/06/30 00:39:28;;;;;;;17.92;8.48;;;28.60;99.90;;;;;;1785851;78;21222;-77
2023/06/30 00:42:01;;;;;;;12.10;8.25;;;28.70;99.90;;;;;;1817779;77;21531;-76
2023/06/30 00:44:37;;;;;;;13.83;8.65;;;28.50;99.90;;;;;;1840641;76;21164;-80
2023/06/30 00:47:17;;;;;;;14.50;8.13;;;28.70;99.90;;;;;;1806415;77;21589;-78
2023/06/30 00:49:56;;;;;;;14.55;8.85;;;28.80;99.90;;;;;;1857993;76;21134;-78
2023/06/30 00:52:31;;;;;;;19.57;8.45;;;28.80;99.90;;;;;;1839999;76;21097;-84
2023/06/30 00:55:04;;;;;;;15.58;8.35;;;28.90;99.90;;;;;;1852239;76;21186;-82
2023/06/30 00:57:38;;;;;;;11.38;7.83;;;29.00;99.90;;;;;;1843158;76;21105;-79
2023/06/30 01:00:15;;;;;;;11.20;8.13;;;29.00;99.90;;;;;;1808195;77;21196;-82
2023/06/30 01:02:55;;;;;;;12.15;8.23;;;29.00;99.90;;;;;;1813222;77;21124;-81
2023/06/30 01:05:59;;;;;;;16.15;8.40;;;29.10;99.90;;;;;;1840612;76;21606;-78
2023/06/30 01:08:41;;;;;;;13.20;7.50;;;29.20;99.90;;;;;;1854878;76;21488;-77
2023/06/30 01:11:15;;;;;;;16.17;7.25;;;29.30;99.90;;;;;;1840593;76;21081;-79
2023/06/30 01:14:06;;;;;;;15.48;8.25;;;29.30;99.90;;;;;;1848065;75;21480;-79
2023/06/30 01:16:41;;;;;;;21.15;8.28;;;29.30;99.90;;;;;;1851265;75;21136;-75
2023/06/30 01:19:26;;;;;;;20.35;9.10;;;29.40;99.90;;;;;;1856937;76;21284;-79
2023/06/30 01:22:02;;;;;;;10.88;7.08;;;29.40;99.90;;;;;;1844931;76;21174;-79
2023/06/30 01:24:36;;;;;;;16.70;8.15;;;29.40;99.90;;;;;;1844256;76;21133;-79
2023/06/30 01:27:14;;;;;;;22.35;8.58;;;29.40;99.90;;;;;;1808400;77;21571;-82
2023/06/30 01:29:47;;;;;;;22.37;7.92;;;29.20;99.90;;;;;;1805812;77;21123;-81
2023/06/30 01:32:21;;;;;;;21.52;7.90;;;29.50;99.90;;;;;;1837737;76;21034;-78
2023/06/30 01:34:56;;;;;;;28.42;9.15;;;29.50;99.90;;;;;;1836847;76;21101;-80
2023/06/30 01:37:33;;;;;;;21.93;8.03;;;29.50;99.90;;;;;;1813990;77;21106;-81
2023/06/30 01:40:07;;;;;;;22.75;8.53;;;29.50;99.90;;;;;;1837396;76;21094;-83
2023/06/30 01:42:52;;;;;;;21.17;8.70;;;29.60;99.90;;;;;;1843119;76;21145;-79
2023/06/30 01:45:30;;;;;;;24.60;8.23;;;29.50;99.90;;;;;;1816363;77;21147;-75
2023/06/30 01:48:04;;;;;;;40.55;11.75;;;29.60;99.90;;;;;;1836368;76;21157;-82
2023/06/30 01:50:39;;;;;;;;;;;29.70;99.90;;;;;;1816954;78;21128;-80
2023/06/30 01:53:13;;;;;;;45.63;10.38;;;29.80;99.90;;;;;;1831189;78;20208;-84
2023/06/30 01:55:55;;;;;;;18.30;7.25;;;29.90;99.90;;;;;;1835260;76;21162;-80
2023/06/30 01:58:44;;;;;;;23.83;8.78;;;30.00;99.90;;;;;;1838537;76;21125;-79
2023/06/30 02:01:19;;;;;;;12.13;7.83;;;30.30;99.90;;;;;;1830518;78;21143;-82
2023/06/30 02:03:55;;;;;;;14.30;7.08;;;30.40;99.90;;;;;;1839890;76;21252;-83
2023/06/30 02:06:29;;;;;;;;;;;30.50;99.90;;;;;;1833361;76;21059;-78
2023/06/30 02:09:11;;;;;;;13.88;7.47;;;30.60;99.90;;;;;;1836049;76;20167;-79
2023/06/30 02:12:03;;;;;;;9.83;6.00;;;30.80;99.90;;;;;;1827028;78;21166;-80
2023/06/30 02:14:37;;;;;;;;;;;30.90;99.90;;;;;;1832432;77;21084;-81
2023/06/30 02:17:12;;;;;;;22.05;7.95;;;31.00;99.90;;;;;;1818378;78;20449;-81
2023/06/30 02:19:55;;;;;;;28.30;8.43;;;31.00;99.90;;;;;;1826607;76;21055;-81
2023/06/30 02:22:52;;;;;;;18.17;7.70;;;31.20;99.90;;;;;;1821585;78;21103;-79
2023/06/30 02:25:28;;;;;;;28.07;10.15;;;31.30;99.90;;;;;;1835618;78;21160;-80
2023/06/30 02:28:13;;;;;;;15.28;6.37;;;31.40;99.90;;;;;;1839004;77;21106;-80
2023/06/30 02:30:47;;;;;;;13.10;6.50;;;31.50;99.90;;;;;;1824616;77;21169;-80
2023/06/30 02:33:28;;;;;;;12.30;5.90;;;31.60;99.40;;;;;;1841090;76;21474;-78
2023/06/30 02:36:20;;;;;;;15.85;6.42;;;31.70;99.90;;;;;;1822183;78;21105;-80
2023/06/30 02:38:52;;;;;;;12.78;6.35;;;31.80;99.90;;;;;;1820939;76;21129;-77
2023/06/30 02:41:46;;;;;;;8.30;5.30;;;31.90;99.40;;;;;;1836256;78;21237;-77
2023/06/30 02:44:24;;;;;;;9.15;5.35;;;32.00;99.50;;;;;;1829042;78;21131;-78
2023/06/30 02:47:17;;;;;;;11.08;5.12;;;32.00;98.90;;;;;;1839745;78;21149;-80
2023/06/30 02:50:11;;;;;;;18.95;7.08;;;32.00;98.40;;;;;;1830396;78;21111;-79
2023/06/30 02:53:06;;;;;;;18.87;6.00;;;32.10;98.60;;;;;;1835933;77;21142;-82
2023/06/30 02:55:57;;;;;;;20.82;6.72;;;32.30;98.00;;;;;;1826803;78;21115;-79
2023/06/30 02:58:49;;;;;;;19.05;7.37;;;32.40;97.90;;;;;;1834204;76;21152;-83
2023/06/30 03:01:38;;;;;;;13.05;4.50;;;32.50;97.00;;;;;;1837737;76;21094;-78
2023/06/30 03:04:30;;;;;;;11.60;4.72;;;32.50;96.40;;;;;;1826040;77;21228;-83
2023/06/30 03:07:06;;;;;;;17.32;6.30;;;32.50;96.80;;;;;;1833844;78;21143;-80
2023/06/30 03:09:41;;;;;;;11.43;4.17;;;32.50;96.70;;;;;;1837529;76;21127;-77
2023/06/30 03:12:16;;;;;;;14.18;5.95;;;32.60;96.20;;;;;;1834753;76;21075;-80
2023/06/30 03:15:07;;;;;;;10.43;4.37;;;32.50;96.70;;;;;;1806488;78;21108;-80
2023/06/30 03:17:49;;;;;;;8.23;4.33;;;32.60;96.80;;;;;;1810432;78;21213;-78
2023/06/30 03:20:41;;;;;;;14.65;5.40;;;32.60;96.50;;;;;;1848814;76;21181;-80
2023/06/30 03:23:25;;;;;;;26.73;6.37;;;32.70;96.30;;;;;;1778530;78;21789;-81
2023/06/30 03:26:15;;;;;;;22.32;6.35;;;32.70;96.70;;;;;;1826178;76;21153;-80
2023/06/30 03:28:49;;;;;;;12.45;4.03;;;32.80;96.60;;;;;;1841495;76;21140;-78
2023/06/30 03:31:30;;;;;;;19.67;6.33;;;32.90;95.60;;;;;;1838557;76;21568;-78
2023/06/30 03:34:06;;;;;;;14.30;5.30;;;32.90;95.90;;;;;;1835281;78;21118;-78
2023/06/30 03:36:51;;;;;;;14.20;5.03;;;32.90;96.30;;;;;;1816540;78;21133;-69
2023/06/30 03:39:28;;;;;;;13.60;4.42;;;32.90;96.20;;;;;;1892270;74;21518;-68
2023/06/30 03:42:00;;;;;;;8.28;4.03;;;33.00;96.30;;;;;;1885503;74;21691;-69
2023/06/30 03:44:33;;;;;;;27.75;7.05;;;;;;;;;;1895108;74;21232;-70
2023/06/30 03:47:05;;;;;;;36.35;7.20;;;33.10;95.90;;;;;;1897148;75;21100;-69
2023/06/30 03:49:39;;;;;;;12.58;4.28;;;33.30;96.10;;;;;;1892480;74;21667;-71
2023/06/30 03:52:12;;;;;;;12.88;4.35;;;33.30;95.70;;;;;;1891783;74;21134;-68
2023/06/30 03:54:45;;;;;;;11.05;4.55;;;33.30;95.10;;;;;;1838974;76;21720;-71
2023/06/30 03:57:19;;;;;;;9.58;4.08;;;33.30;95.40;;;;;;1843510;76;21543;-70
2023/06/30 03:59:55;;;;;;;6.65;3.65;;;33.20;95.20;;;;;;1884818;75;21614;-70
2023/06/30 04:02:28;;;;;;;16.52;5.62;;;33.00;95.20;;;;;;1895654;74;21086;-68
2023/06/30 04:05:00;;;;;;;6.60;3.80;;;33.00;95.90;;;;;;1811983;78;21647;-69
2023/06/30 04:07:31;;;;;;;8.43;3.75;;;32.90;95.40;;;;;;1844223;76;21056;-69
2023/06/30 04:10:04;;;;;;;28.07;5.65;;;32.90;95.80;;;;;;1845097;76;21046;-69
2023/06/30 04:12:38;;;;;;;10.85;4.42;;;33.00;96.00;;;;;;1836563;78;21097;-69
2023/06/30 04:15:17;;;;;;;8.58;4.70;;;33.10;95.80;;;;;;1818767;77;21163;-69
2023/06/30 04:17:48;;;;;;;12.28;4.28;;;33.30;95.00;;;;;;1841563;76;21137;-69
2023/06/30 04:20:23;;;;;;;8.78;3.95;;;33.30;95.20;;;;;;1812044;77;21085;-68
2023/06/30 04:22:55;;;;;;;16.82;4.53;;;33.30;95.40;;;;;;1841571;76;21184;-68
2023/06/30 04:25:29;;;;;;;10.60;4.47;;;33.20;95.70;;;;;;1843872;76;21111;-69
2023/06/30 04:28:03;;;;;;;15.15;5.22;;;33.10;95.90;;;;;;1841139;77;21167;-69
2023/06/30 04:30:35;;;;;;;9.63;4.25;;;33.20;95.80;;;;;;1838128;77;21066;-70
2023/06/30 04:33:08;;;;;;;31.25;6.83;;;33.40;96.40;;;;;;1837562;76;21141;-68
2023/06/30 04:35:43;;;;;;;13.03;4.97;;;33.40;95.40;;;;;;1832742;76;21105;-68
2023/06/30 04:38:15;;;;;;;11.95;3.95;;;33.40;95.50;;;;;;1833748;77;21097;-70
2023/06/30 04:40:50;;;;;;;9.80;4.03;;;33.40;95.10;;;;;;1836021;77;21085;-69
2023/06/30 04:43:24;;;;;;;23.60;5.22;;;33.40;95.10;;;;;;1844158;76;21122;-66
2023/06/30 04:45:57;;;;;;;13.88;4.65;;;33.30;95.40;;;;;;1824422;76;21115;-70
2023/06/30 04:48:35;;;;;;;8.53;4.42;;;33.20;95.30;;;;;;1836636;76;21127;-71
2023/06/30 04:51:08;;;;;;;69.25;11.55;;;33.20;95.30;;;;;;1841266;76;21666;-69
2023/06/30 04:53:40;;;;;;;26.85;6.67;;;33.10;95.90;;;;;;1835868;76;21083;-69
2023/06/30 04:56:14;;;;;;;11.38;4.50;;;33.10;95.90;;;;;;1843823;76;21242;-69
2023/06/30 04:58:48;;;;;;;9.25;4.87;;;33.20;95.80;;;;;;1832326;76;21208;-70
2023/06/30 05:01:21;;;;;;;16.12;9.30;;;33.40;95.60;;;;;;1835251;76;21140;-69
2023/06/30 05:03:53;;;;;;;7.17;4.08;;;33.40;95.40;;;;;;1839207;76;21183;-69
2023/06/30 05:06:26;;;;;;;12.37;4.97;;;33.40;95.30;;;;;;1848552;76;21092;-69
2023/06/30 05:08:58;;;;;;;7.15;4.50;;;33.30;95.50;;;;;;1834138;78;21234;-69
2023/06/30 05:11:34;;;;;;;12.45;4.67;;;33.30;95.70;;;;;;1840000;76;21162;-70
2023/06/30 05:14:07;;;;;;;7.78;4.25;;;33.40;95.50;;;;;;1836990;76;21532;-70
2023/06/30 05:16:42;;;;;;;;;;;33.60;94.90;;;;;;1840245;76;21151;-69
2023/06/30 05:19:16;;;;;;;9.45;4.42;;;33.60;94.90;;;;;;1830504;76;20320;-68
2023/06/30 05:21:50;;;;;;;6.12;4.10;;;33.70;95.00;;;;;;1835719;78;21097;-70
2023/06/30 05:24:24;;;;;;;6.95;4.20;;;33.70;94.30;;;;;;1835981;78;21171;-70
2023/06/30 05:26:56;;;;;;;8.20;3.87;;;33.70;94.70;;;;;;1806519;78;21156;-69
2023/06/30 05:29:31;;;;;;;7.53;3.92;;;33.80;94.50;;;;;;1839848;76;21867;-70
2023/06/30 05:32:03;;;;;;;7.53;4.00;;;33.70;94.00;;;;;;1854038;76;21130;-70
2023/06/30 05:34:36;;;;;;;7.25;4.03;;;33.80;94.60;;;;;;1843142;76;21526;-69
2023/06/30 05:37:09;;;;;;;7.17;3.60;;;33.90;94.50;;;;;;1848379;76;21090;-70
2023/06/30 05:39:42;;;;;;;10.45;5.08;;;34.00;94.60;;;;;;1838777;76;21082;-69
2023/06/30 05:42:15;;;;;;;10.85;4.58;;;34.00;94.70;;;;;;1839860;76;21052;-72
2023/06/30 05:44:52;;;;;;;8.40;3.92;;;34.00;94.50;;;;;;1844576;76;21188;-71
2023/06/30 05:47:24;;;;;;;11.75;4.45;;;34.00;93.90;;;;;;1846074;76;21625;-69
2023/06/30 05:49:57;;;;;;;11.03;5.70;;;33.90;95.40;;;;;;1831923;78;21099;-69
2023/06/30 05:52:30;;;;;;;13.05;5.12;;;33.60;96.80;;;;;;1827391;77;21043;-70
2023/06/30 05:55:01;;;;;;;10.58;6.00;;;33.30;98.00;;;;;;1836065;76;21119;-70
2023/06/30 05:57:34;;;;;;;13.32;6.60;;;32.90;99.30;;;;;;1838501;76;21122;-70
2023/06/30 06:00:10;;;;;;;;;;;32.70;99.90;;;;;;1883765;75;21119;-70
2023/06/30 06:02:44;;;;;;;7.20;5.50;;;32.50;99.90;;;;;;1850312;76;20168;-68
2023/06/30 06:05:16;;;;;;;9.78;5.58;;;32.50;99.90;;;;;;1857718;77;21126;-68
2023/06/30 06:07:53;;;;;;;8.60;4.60;;;32.40;99.80;;;;;;1861269;76;21616;-69
2023/06/30 06:10:24;;;;;;;10.95;5.67;;;32.40;99.40;;;;;;1857454;77;21623;-70
2023/06/30 06:12:57;;;;;;;9.18;5.72;;;32.40;99.90;;;;;;1859920;77;21184;-70
2023/06/30 06:15:31;;;;;;;8.85;5.65;;;32.60;99.90;;;;;;1861504;76;21157;-70
2023/06/30 06:18:05;;;;;;;8.48;5.00;;;32.70;99.70;;;;;;1841828;76;21083;-69
2023/06/30 06:20:38;;;;;;;10.53;5.55;;;32.80;98.90;;;;;;1842048;77;21195;-68
2023/06/30 06:23:14;;;;;;;14.43;5.67;;;32.90;98.80;;;;;;1879466;74;21569;-67
2023/06/30 06:25:49;;;;;;;9.33;4.30;;;33.10;99.10;;;;;;1811177;78;21127;-68
2023/06/30 06:28:21;;;;;;;9.65;4.45;;;33.20;97.20;;;;;;1829391;76;21469;-69
2023/06/30 06:30:54;;;;;;;9.10;5.30;;;33.30;96.80;;;;;;1835770;76;21181;-67
2023/06/30 06:33:26;;;;;;;10.23;4.97;;;33.30;96.80;;;;;;1891855;75;21087;-68
2023/06/30 06:36:01;;;;;;;10.98;5.42;;;33.40;97.20;;;;;;1886956;74;21077;-70
2023/06/30 06:38:42;;;;;;;14.60;6.30;;;33.40;97.10;;;;;;1843862;76;21143;-69
2023/06/30 06:41:17;;;;;;;35.23;8.15;;;33.40;97.20;;;;;;1835131;76;21095;-69
2023/06/30 06:43:49;;;;;;;12.58;4.95;;;33.40;97.20;;;;;;1838801;76;21195;-70
2023/06/30 06:46:20;;;;;;;10.38;4.65;;;33.30;96.90;;;;;;1806296;78;21577;-71
2023/06/30 06:48:58;;;;;;;9.53;4.53;;;33.30;96.90;;;;;;1854322;76;21580;-70
2023/06/30 06:51:28;;;;;;;13.18;5.00;;;33.30;96.80;;;;;;1850580;76;21107;-68
2023/06/30 06:53:59;;;;;;;10.18;4.03;;;33.20;96.80;;;;;;1840827;76;21064;-71
2023/06/30 06:56:32;;;;;;;14.98;6.00;;;33.20;96.40;;;;;;1844098;76;21463;-69
2023/06/30 06:59:05;;;;;;;10.05;5.00;;;33.10;96.80;;;;;;1839658;76;21598;-69
2023/06/30 07:01:38;;;;;;;9.85;4.58;;;33.10;96.90;;;;;;1849204;76;21137;-70
2023/06/30 07:04:11;;;;;;;11.70;5.00;;;33.10;96.60;;;;;;1846103;76;21114;-68
2023/06/30 07:06:43;;;;;;;6.62;4.00;;;33.10;96.40;;;;;;1854184;76;21140;-68
2023/06/30 07:09:15;;;;;;;9.43;4.42;;;33.00;96.30;;;;;;1878921;74;21202;-67
2023/06/30 07:11:48;;;;;;;8.93;4.60;;;33.00;96.50;;;;;;1834006;76;21675;-68
2023/06/30 07:14:24;;;;;;;8.73;4.58;;;33.00;97.10;;;;;;1840086;76;21079;-69
2023/06/30 07:16:57;;;;;;;10.40;4.65;;;33.10;96.90;;;;;;1849739;76;21078;-70
2023/06/30 07:19:31;;;;;;;12.80;5.58;;;33.20;96.90;;;;;;1838128;76;21232;-68
2023/06/30 07:22:05;;;;;;;19.23;6.17;;;33.40;96.50;;;;;;1822648;77;21108;-71
2023/06/30 07:24:41;;;;;;;20.02;6.03;;;33.50;96.40;;;;;;1840255;76;21139;-76
2023/06/30 07:27:33;;;;;;;13.28;4.50;;;33.60;96.40;;;;;;1788835;78;21111;-80
2023/06/30 07:30:13;;;;;;;7.53;3.33;;;33.70;96.00;;;;;;1804809;78;21225;-81
2023/06/30 07:32:59;;;;;;;13.75;4.78;;;33.70;95.40;;;;;;1801661;78;21115;-81
2023/06/30 07:35:36;;;;;;;7.10;3.80;;;33.80;95.20;;;;;;1788031;79;21111;-81
2023/06/30 07:38:27;;;;;;;31.82;7.72;;;33.90;94.50;;;;;;1796933;78;21145;-80
2023/06/30 07:41:02;;;;;;;7.78;4.28;;;34.00;94.80;;;;;;1804667;77;21633;-78
2023/06/30 07:43:38;;;;;;;;;;;34.10;94.70;;;;;;1810920;78;21151;-77
2023/06/30 07:46:14;;;;;;;9.20;3.77;;;34.10;94.70;;;;;;1853645;77;20350;-81
2023/06/30 07:48:58;;;;;;;19.80;5.40;;;34.00;94.20;;;;;;1840823;77;21091;-83
2023/06/30 07:51:32;;;;;;;10.75;4.45;;;34.00;94.70;;;;;;1857201;76;21147;-80
2023/06/30 07:54:22;;;;;;;13.62;4.85;;;33.90;95.20;;;;;;1849827;74;21109;-78
2023/06/30 07:57:02;;;;;;;68.07;12.13;;;33.80;94.80;;;;;;1842127;76;21164;-77
2023/06/30 07:59:49;;;;;;;7.92;3.72;;;33.80;94.70;;;;;;1839975;76;21134;-79
2023/06/30 08:02:24;;;;;;;13.45;4.30;;;33.90;93.70;;;;;;1838673;76;21119;-77
2023/06/30 08:05:03;;;;;;;7.97;4.12;;;33.90;94.20;;;;;;1849643;76;21095;-78
2023/06/30 08:07:45;;;;;;;6.20;3.62;;;33.90;94.70;;;;;;1841375;76;21124;-81
2023/06/30 08:10:28;;;;;;;;;;;33.90;94.10;;;;;;1840903;77;21087;-74
2023/06/30 08:13:21;;;;;;;6.25;3.42;;;33.80;94.40;;;;;;1785410;78;20150;-79
2023/06/30 08:16:02;;;;;;;5.47;3.20;;;33.80;94.40;;;;;;1812242;78;21140;-78
2023/06/30 08:18:53;;;;;;;10.38;4.50;;;33.80;94.20;;;;;;1897254;75;21109;-78
2023/06/30 08:21:49;;;;;;;20.82;6.12;;;33.80;93.90;;;;;;1812889;78;21126;-75
2023/06/30 08:24:38;;;;;;;8.98;3.60;;;33.80;94.40;;;;;;1770247;80;21200;-77
2023/06/30 08:27:28;;;;;;;6.83;3.50;;;33.90;93.90;;;;;;1814916;78;21088;-76
2023/06/30 08:30:15;;;;;;;14.75;5.30;;;33.90;93.80;;;;;;1815835;77;21152;-79
2023/06/30 08:33:08;;;;;;;7.30;3.33;;;34.00;93.50;;;;;;1775560;80;21734;-76
2023/06/30 08:35:56;;;;;;;5.28;3.33;;;34.00;93.70;;;;;;1815918;77;21083;-78
2023/06/30 08:38:31;;;;;;;4.83;2.58;;;34.00;93.30;;;;;;1801231;79;21508;-81
2023/06/30 08:41:20;;;;;;;7.55;3.80;;;34.10;93.80;;;;;;1777371;79;21176;-77
2023/06/30 08:44:11;;;;;;;8.15;3.55;;;34.00;93.20;;;;;;1836684;78;21573;-76
2023/06/30 08:46:48;;;;;;;7.00;3.45;;;34.10;93.20;;;;;;1781208;79;21184;-77
2023/06/30 08:49:37;;;;;;;6.33;2.80;;;34.10;92.80;;;;;;1812706;78;21110;-76
2023/06/30 08:52:14;;;;;;;4.03;2.42;;;34.20;93.00;;;;;;1838053;78;21130;-76
2023/06/30 08:55:12;;;;;;;5.17;3.35;;;34.10;92.30;;;;;;1887976;75;21097;-79
2023/06/30 08:57:53;;;;;;;7.17;4.15;;;34.10;93.60;;;;;;1894890;74;21049;-80
2023/06/30 09:00:38;;;;;;;8.50;3.70;;;34.00;94.00;;;;;;1822591;78;21098;-77
2023/06/30 09:03:12;;;;;;;7.33;4.05;;;34.00;94.30;;;;;;1844769;76;21157;-78
2023/06/30 09:05:46;;;;;;;9.80;3.70;;;33.90;94.40;;;;;;1797086;78;21139;-77
2023/06/30 09:08:40;;;;;;;10.45;6.58;;;33.80;94.50;;;;;;1800739;78;21138;-80
2023/06/30 09:11:12;;;;;;;8.83;4.62;;;33.80;94.40;;;;;;1824737;77;21212;-77
2023/06/30 09:13:53;;;;;;;10.10;4.70;;;33.70;94.50;;;;;;1830359;78;21231;-77
2023/06/30 09:16:30;;;;;;;13.68;4.95;;;33.60;94.40;;;;;;1842443;76;21185;-77
2023/06/30 09:19:05;;;;;;;9.30;5.75;;;33.60;94.50;;;;;;1821976;77;21160;-76
2023/06/30 09:21:38;;;;;;;6.40;4.75;;;33.70;94.40;;;;;;1832981;78;21101;-76
2023/06/30 09:24:13;;;;;;;5.40;3.62;;;33.70;94.60;;;;;;1840664;76;21154;-81
2023/06/30 09:26:52;;;;;;;6.47;3.87;;;33.70;94.80;;;;;;1838801;77;21087;-78
2023/06/30 09:29:38;;;;;;;6.78;3.87;;;33.60;94.50;;;;;;1838927;78;21210;-79
2023/06/30 09:32:28;;;;;;;7.10;3.75;;;33.60;94.40;;;;;;1812481;76;21219;-79
2023/06/30 09:35:11;;;;;;;7.50;3.58;;;33.60;94.80;;;;;;1797314;79;21115;-82
2023/06/30 09:37:45;;;;;;;9.13;4.55;;;33.60;94.40;;;;;;1840311;76;21113;-80
2023/06/30 09:40:22;;;;;;;7.65;5.25;;;33.60;94.20;;;;;;1878170;75;21074;-80
2023/06/30 09:42:57;;;;;;;8.20;4.65;;;33.60;94.40;;;;;;1800062;79;21126;-80
2023/06/30 09:45:35;;;;;;;11.75;4.95;;;33.50;94.20;;;;;;1806083;78;21079;-80
2023/06/30 09:48:18;;;;;;;7.53;4.45;;;33.50;94.40;;;;;;1806102;79;21162;-81
2023/06/30 09:50:53;;;;;;;9.30;4.83;;;33.50;94.90;;;;;;1810205;77;21080;-83
2023/06/30 09:53:40;;;;;;;8.15;5.35;;;33.50;95.00;;;;;;1838213;77;21237;-80
2023/06/30 09:56:23;;;;;;;7.62;4.87;;;33.50;94.60;;;;;;1846162;78;21159;-81
2023/06/30 09:59:16;;;;;;;8.38;4.72;;;33.50;94.70;;;;;;1795869;78;21155;-77
2023/06/30 10:01:50;;;;;;;8.88;4.75;;;33.50;94.60;;;;;;1789382;78;21221;-77
2023/06/30 10:04:25;;;;;;;11.03;6.70;;;33.50;94.50;;;;;;1799563;78;21526;-83
2023/06/30 10:07:03;;;;;;;8.88;5.00;;;33.50;94.70;;;;;;1874997;76;21172;-78
2023/06/30 10:09:37;;;;;;;8.40;5.72;;;33.50;94.60;;;;;;1789321;79;21140;-80
2023/06/30 10:12:10;;;;;;;11.03;5.70;;;33.50;94.60;;;;;;1816607;78;21162;-80
2023/06/30 10:14:54;;;;;;;9.98;4.70;;;33.50;94.50;;;;;;1834747;78;21064;-79
2023/06/30 10:17:29;;;;;;;6.62;4.20;;;33.50;94.70;;;;;;1820578;78;21092;-82
2023/06/30 10:20:09;;;;;;;16.82;5.28;;;33.50;94.20;;;;;;1812366;79;21131;-81
2023/06/30 10:22:44;;;;;;;12.20;4.60;;;33.50;94.30;;;;;;1826023;78;21084;-81
2023/06/30 10:25:23;;;;;;;8.33;4.85;;;33.50;94.50;;;;;;1806462;77;21167;-77
2023/06/30 10:28:00;;;;;;;18.37;6.03;;;33.50;94.80;;;;;;1794019;78;21130;-81
2023/06/30 10:30:34;;;;;;;7.08;4.05;;;33.50;94.90;;;;;;1804320;79;21119;-75
2023/06/30 10:33:09;;;;;;;8.88;4.40;;;33.40;94.00;;;;;;1847412;76;21091;-82
2023/06/30 10:35:42;;;;;;;9.63;4.53;;;33.40;93.80;;;;;;1850266;76;21145;-79
2023/06/30 10:38:17;;;;;;;7.58;3.45;;;33.40;93.50;;;;;;1845109;76;21192;-81
2023/06/30 10:41:16;;;;;;;6.78;3.17;;;33.30;93.60;;;;;;1851823;76;21162;-77
2023/06/30 10:44:09;;;;;;;12.45;4.60;;;33.40;93.80;;;;;;1835819;76;21069;-77
2023/06/30 10:46:53;;;;;;;15.70;4.58;;;33.30;94.00;;;;;;1809413;77;21633;-82
2023/06/30 10:49:40;;;;;;;9.15;5.37;;;33.30;94.00;;;;;;1860121;76;21103;-79
2023/06/30 10:52:14;;;;;;;14.43;6.62;;;33.30;94.30;;;;;;1840425;76;21096;-79
2023/06/30 10:54:50;;;;;;;13.13;5.22;;;33.30;94.40;;;;;;1833441;77;21188;-82
2023/06/30 10:57:33;;;;;;;14.63;4.95;;;33.30;94.40;;;;;;1833265;76;21062;-76
2023/06/30 11:00:15;;;;;;;123.97;13.22;;;33.20;94.40;;;;;;1842063;78;21676;-77
2023/06/30 11:03:00;;;;;;;57.70;7.70;;;33.20;94.70;;;;;;1834859;78;21131;-78
2023/06/30 11:05:34;;;;;;;31.80;4.80;;;33.00;95.00;;;;;;1853247;75;21122;-80
2023/06/30 11:08:09;;;;;;;27.77;4.72;;;32.60;94.60;;;;;;1839730;76;21248;-80
2023/06/30 11:11:03;;;;;;;16.05;2.98;;;32.20;94.90;;;;;;1831824;78;21087;-78
2023/06/30 11:13:45;;;;;;;12.73;2.80;;;31.80;95.20;;;;;;1842477;76;21116;-77
2023/06/30 11:16:19;;;;;;;6.40;1.80;;;31.50;95.30;;;;;;1842731;76;21050;-81
2023/06/30 11:19:00;;;;;;;8.28;1.67;;;31.10;95.60;;;;;;1858042;76;21137;-81
2023/06/30 11:21:35;;;;;;;5.75;2.22;;;30.80;96.20;;;;;;1841675;76;21088;-80
2023/06/30 11:24:12;;;;;;;8.40;2.50;;;30.50;97.10;;;;;;1836626;76;21111;-81
2023/06/30 11:26:48;;;;;;;7.58;2.42;;;30.40;98.10;;;;;;1855796;76;21139;-82
2023/06/30 11:29:23;;;;;;;9.83;2.67;;;30.00;98.20;;;;;;1842936;76;21085;-80
2023/06/30 11:32:00;;;;;;;12.20;3.30;;;29.90;99.30;;;;;;1844879;76;21074;-79
2023/06/30 11:34:46;;;;;;;11.30;3.60;;;29.70;99.90;;;;;;1838970;76;21106;-76
2023/06/30 11:37:36;;;;;;;8.28;3.05;;;29.50;99.90;;;;;;1833920;76;21160;-75
2023/06/30 11:40:12;;;;;;;13.48;3.58;;;29.30;99.90;;;;;;1838712;76;21565;-76
2023/06/30 11:42:49;;;;;;;10.72;3.40;;;28.90;99.90;;;;;;1840490;76;21225;-76
2023/06/30 11:45:30;;;;;;;7.67;3.27;;;28.90;99.90;;;;;;1811276;77;21124;-75
2023/06/30 11:48:07;;;;;;;7.40;3.08;;;28.80;99.90;;;;;;1819657;78;21183;-75
2023/06/30 11:50:46;;;;;;;5.35;2.27;;;28.60;99.90;;;;;;1852122;75;21182;-76
2023/06/30 11:53:35;;;;;;;7.75;2.98;;;28.60;99.90;;;;;;1838913;76;21170;-80
2023/06/30 11:56:08;;;;;;;7.62;2.85;;;28.60;99.90;;;;;;1850863;76;21150;-76
2023/06/30 11:58:54;;;;;;;10.23;3.00;;;28.60;99.90;;;;;;1849114;76;21117;-76
2023/06/30 12:01:27;;;;;;;7.03;2.98;;;28.50;99.90;;;;;;1835453;76;21073;-78
2023/06/30 12:04:13;;;;;;;4.92;3.15;;;28.50;99.90;;;;;;1816334;78;21087;-79
2023/06/30 12:06:45;;;;;;;9.65;3.60;;;28.50;99.90;;;;;;1849194;76;21066;-80
2023/06/30 12:09:18;;;;;;;6.97;3.75;;;28.40;99.90;;;;;;1821037;77;21159;-81
2023/06/30 12:11:52;;;;;;;8.30;4.10;;;28.40;99.90;;;;;;1840809;78;21189;-83
2023/06/30 12:14:27;;;;;;;5.13;3.03;;;28.40;99.90;;;;;;1838382;76;21060;-83
2023/06/30 12:17:01;;;;;;;6.03;3.40;;;28.40;99.90;;;;;;1838013;78;21422;-83
2023/06/30 12:19:33;;;;;;;9.00;3.72;;;28.50;99.90;;;;;;1840480;76;21150;-76
2023/06/30 12:22:11;;;;;;;7.15;2.77;;;28.50;99.90;;;;;;1828297;78;21067;-77
2023/06/30 12:24:43;;;;;;;5.85;2.85;;;28.50;99.90;;;;;;1792114;79;21489;-76
2023/06/30 12:27:16;;;;;;;5.58;2.62;;;28.50;99.90;;;;;;1844750;76;21138;-81
2023/06/30 12:29:57;;;;;;;6.12;2.85;;;28.50;99.90;;;;;;1804397;78;21108;-77
2023/06/30 12:32:31;;;;;;;6.65;2.42;;;28.50;99.90;;;;;;1792679;79;21096;-80
2023/06/30 12:35:07;;;;;;;5.15;2.12;;;28.50;99.90;;;;;;1787542;79;21193;-83
2023/06/30 12:37:50;;;;;;;5.40;2.50;;;28.40;99.90;;;;;;1840072;76;21669;-83
2023/06/30 12:40:23;;;;;;;6.03;2.50;;;28.40;99.90;;;;;;1838747;76;21138;-79
2023/06/30 12:43:01;;;;;;;4.47;2.52;;;28.30;99.90;;;;;;1837755;76;21087;-81
2023/06/30 12:45:38;;;;;;;7.25;2.80;;;28.30;99.90;;;;;;1832923;78;21092;-80
2023/06/30 12:48:12;;;;;;;;;;;28.20;99.90;;;;;;1854625;76;21536;-81
2023/06/30 12:51:00;;;;;;;6.72;3.40;;;28.20;99.90;;;;;;1796598;79;20433;-76
2023/06/30 12:53:37;;;;;;;6.15;2.92;;;28.20;99.90;;;;;;1894732;75;21161;-77
2023/06/30 12:56:08;;;;;;;6.75;3.25;;;28.20;99.90;;;;;;1874661;75;21123;-76
2023/06/30 12:58:43;;;;;;;6.80;3.02;;;28.20;99.90;;;;;;1885396;75;21111;-80
2023/06/30 13:01:16;;;;;;;5.83;2.75;;;28.20;99.90;;;;;;1797842;78;21158;-76
2023/06/30 13:03:49;;;;;;;9.33;3.35;;;28.20;99.90;;;;;;1790799;78;21162;-81
2023/06/30 13:06:23;;;;;;;5.40;2.55;;;28.20;99.90;;;;;;1809347;78;21136;-80
2023/06/30 13:08:58;;;;;;;4.08;2.98;;;28.30;99.90;;;;;;1866412;76;21563;-78
2023/06/30 13:11:36;;;;;;;9.38;3.65;;;28.30;99.90;;;;;;1846864;75;21119;-81
2023/06/30 13:14:09;;;;;;;6.62;2.87;;;28.30;99.90;;;;;;1841853;77;21123;-82
2023/06/30 13:16:46;;;;;;;8.10;4.30;;;28.40;99.90;;;;;;1897403;75;21138;-84
2023/06/30 13:19:24;;;;;;;5.67;3.47;;;28.30;99.90;;;;;;1875810;76;21107;-81
2023/06/30 13:22:13;;;;;;;5.83;2.98;;;28.30;99.90;;;;;;1877951;75;21149;-84
2023/06/30 13:25:01;;;;;;;8.10;2.72;;;28.30;99.90;;;;;;1837258;76;21141;-78
2023/06/30 13:27:41;;;;;;;5.37;3.10;;;28.30;99.90;;;;;;1873237;75;21102;-76
2023/06/30 13:30:16;;;;;;;7.80;3.50;;;28.40;99.90;;;;;;1838438;75;21146;-77
2023/06/30 13:32:54;;;;;;;3.95;2.47;;;28.40;99.90;;;;;;1855603;75;21741;-84
2023/06/30 13:35:30;;;;;;;8.55;2.83;;;28.30;99.90;;;;;;1843413;76;21204;-79
2023/06/30 13:38:04;;;;;;;5.72;2.95;;;28.40;99.90;;;;;;1812755;77;21120;-78
2023/06/30 13:40:40;;;;;;;8.55;2.67;;;28.30;99.90;;;;;;1837032;77;21180;-77